createdAt,value
2023-02-20T00:00:40.149Z,19.88
2023-02-20T00:03:11.432Z,14.55
2023-02-20T00:17:01.541Z,13.20
2023-02-20T00:21:54.656Z,13.70
2023-02-20T00:24:21.445Z,10.18
2023-02-20T00:26:52.789Z,9.23
2023-02-20T00:29:23.377Z,10.57
2023-02-20T00:31:57.932Z,10.45
2023-02-20T00:34:30.574Z,10.10
2023-02-20T00:36:59.387Z,8.80
2023-02-20T00:39:25.952Z,8.88
2023-02-20T00:41:52.576Z,9.32
2023-02-20T00:44:19.079Z,15.30
2023-02-20T00:46:45.597Z,10.38
2023-02-20T00:49:12.351Z,9.00
2023-02-20T00:51:40.146Z,8.98
2023-02-20T00:54:07.529Z,15.20
2023-02-20T00:56:33.923Z,12.38
2023-02-20T00:59:03.037Z,10.30
2023-02-20T01:01:30.138Z,10.32
2023-02-20T01:03:57.971Z,10.35
2023-02-20T01:06:24.332Z,13.75
2023-02-20T01:08:52.274Z,16.25
2023-02-20T01:11:18.672Z,12.18
2023-02-20T01:13:47.331Z,16.00
2023-02-20T01:16:15.109Z,16.90
2023-02-20T01:18:41.877Z,17.00
2023-02-20T01:21:09.729Z,20.80
2023-02-20T01:23:36.434Z,18.83
2023-02-20T01:26:03.137Z,18.77
2023-02-20T01:28:29.706Z,18.08
2023-02-20T01:30:57.347Z,18.80
2023-02-20T01:33:23.975Z,19.20
2023-02-20T01:35:51.320Z,18.08
2023-02-20T01:38:19.801Z,18.30
2023-02-20T01:43:18.032Z,20.50
2023-02-20T01:45:45.896Z,25.63
2023-02-20T01:48:26.093Z,20.87
2023-02-20T01:51:02.607Z,23.10
2023-02-20T01:53:30.706Z,20.85
2023-02-20T01:56:03.071Z,22.63
2023-02-20T01:58:35.741Z,21.50
2023-02-20T02:01:04.187Z,25.05
2023-02-20T02:03:35.705Z,26.17
2023-02-20T02:06:06.043Z,26.42
2023-02-20T02:08:34.683Z,30.67
2023-02-20T02:11:02.790Z,27.90
2023-02-20T02:13:30.648Z,26.38
2023-02-20T02:16:36.397Z,24.92
2023-02-20T02:19:50.609Z,24.65
2023-02-20T02:22:45.141Z,28.92
2023-02-20T02:25:38.285Z,22.92
2023-02-20T02:28:32.372Z,26.65
2023-02-20T02:31:41.290Z,27.65
2023-02-20T02:34:37.938Z,25.38
2023-02-20T02:37:41.711Z,23.13
2023-02-20T02:40:26.334Z,26.30
2023-02-20T02:43:32.090Z,21.80
2023-02-20T02:46:17.595Z,19.65
2023-02-20T02:48:57.476Z,21.92
2023-02-20T02:51:30.026Z,22.45
2023-02-20T02:54:14.978Z,26.80
2023-02-20T02:56:47.266Z,25.65
2023-02-20T02:59:30.255Z,22.45
2023-02-20T03:02:01.696Z,23.80
2023-02-20T03:04:31.787Z,25.15
2023-02-20T03:07:09.057Z,24.20
2023-02-20T03:09:44.138Z,25.50
2023-02-20T03:12:13.550Z,22.38
2023-02-20T03:15:27.009Z,22.35
2023-02-20T03:18:15.615Z,24.42
2023-02-20T03:20:46.196Z,27.20
2023-02-20T03:23:18.338Z,24.00
2023-02-20T03:25:55.280Z,24.00
2023-02-20T03:28:24.642Z,26.88
2023-02-20T03:31:00.047Z,23.20
2023-02-20T03:33:56.063Z,26.50
2023-02-20T03:36:55.982Z,24.38
2023-02-20T03:39:47.325Z,21.65
2023-02-20T03:42:36.263Z,24.98
2023-02-20T03:45:05.324Z,26.00
2023-02-20T03:47:36.662Z,21.02
2023-02-20T03:50:06.707Z,24.10
2023-02-20T03:52:33.674Z,23.77
2023-02-20T03:55:01.416Z,30.58
2023-02-20T03:57:41.879Z,23.67
2023-02-20T04:00:19.632Z,21.33
2023-02-20T04:02:50.475Z,19.60
2023-02-20T04:05:22.605Z,22.55
2023-02-20T04:08:02.882Z,23.67
2023-02-20T04:10:36.260Z,24.23
2023-02-20T04:13:06.958Z,21.88
2023-02-20T04:15:35.389Z,27.52
2023-02-20T04:18:10.081Z,22.25
2023-02-20T04:20:36.779Z,24.08
2023-02-20T04:23:10.617Z,21.63
2023-02-20T04:25:55.235Z,21.85
2023-02-20T04:28:22.910Z,23.23
2023-02-20T04:30:50.595Z,20.83
2023-02-20T04:33:17.602Z,24.60
2023-02-20T04:35:45.594Z,17.95
2023-02-20T04:38:12.765Z,22.58
2023-02-20T04:40:40.458Z,19.38
2023-02-20T04:43:06.915Z,18.43
2023-02-20T04:45:33.651Z,19.92
2023-02-20T04:48:00.093Z,19.20
2023-02-20T04:50:30.826Z,22.73
2023-02-20T04:52:57.712Z,20.42
2023-02-20T04:55:24.190Z,19.88
2023-02-20T04:57:51.028Z,17.83
2023-02-20T05:00:18.488Z,20.42
2023-02-20T05:02:45.580Z,20.42
2023-02-20T05:05:18.584Z,19.35
2023-02-20T05:07:45.557Z,23.42
2023-02-20T05:10:16.795Z,17.35
2023-02-20T05:12:43.279Z,24.40
2023-02-20T05:15:10.037Z,22.00
2023-02-20T05:17:37.253Z,18.55
2023-02-20T05:20:05.614Z,19.63
2023-02-20T05:22:32.025Z,19.85
2023-02-20T05:24:58.514Z,19.75
2023-02-20T05:27:27.018Z,19.40
2023-02-20T05:32:23.537Z,19.02
2023-02-20T05:34:50.538Z,22.15
2023-02-20T05:37:19.353Z,20.10
2023-02-20T05:39:46.940Z,19.80
2023-02-20T05:42:14.152Z,22.87
2023-02-20T05:44:40.585Z,15.50
2023-02-20T05:47:07.927Z,23.60
2023-02-20T05:49:35.772Z,20.20
2023-02-20T05:52:04.172Z,22.73
2023-02-20T05:54:30.837Z,18.77
2023-02-20T05:56:57.342Z,16.55
2023-02-20T05:59:23.880Z,19.55
2023-02-20T06:01:56.821Z,18.08
2023-02-20T06:04:23.498Z,19.75
2023-02-20T06:06:50.010Z,19.02
2023-02-20T06:09:16.908Z,20.33
2023-02-20T06:11:50.557Z,15.75
2023-02-20T06:14:18.883Z,25.05
2023-02-20T06:16:46.050Z,16.58
2023-02-20T06:19:19.003Z,16.83
2023-02-20T06:21:47.064Z,20.63
2023-02-20T06:24:13.692Z,15.93
2023-02-20T06:26:41.803Z,19.75
2023-02-20T06:29:08.438Z,20.30
2023-02-20T06:31:34.967Z,19.60
2023-02-20T06:34:01.622Z,17.55
2023-02-20T06:36:31.328Z,13.30
2023-02-20T06:38:58.482Z,16.63
2023-02-20T06:41:25.060Z,13.93
2023-02-20T06:43:51.423Z,14.50
2023-02-20T06:46:17.900Z,15.10
2023-02-20T06:48:53.712Z,16.45
2023-02-20T06:51:23.400Z,19.58
2023-02-20T06:53:50.094Z,19.67
2023-02-20T06:56:19.789Z,19.98
2023-02-20T06:58:48.050Z,17.63
2023-02-20T07:01:15.759Z,21.40
2023-02-20T07:03:45.000Z,23.83
2023-02-20T07:06:11.999Z,24.80
2023-02-20T07:08:38.775Z,24.35
2023-02-20T07:11:05.136Z,25.63
2023-02-20T07:13:31.758Z,34.75
2023-02-20T07:15:58.226Z,28.13
2023-02-20T07:18:27.140Z,27.02
2023-02-20T07:20:55.223Z,37.85
2023-02-20T07:23:22.201Z,33.60
2023-02-20T07:25:49.785Z,32.22
2023-02-20T07:28:18.331Z,40.47
2023-02-20T07:33:11.973Z,46.53
2023-02-20T07:35:38.657Z,38.53
2023-02-20T07:38:05.529Z,45.08
2023-02-20T07:40:31.935Z,49.85
2023-02-20T07:42:58.520Z,44.13
2023-02-20T07:45:25.882Z,43.83
2023-02-20T07:47:52.522Z,57.55
2023-02-20T07:50:19.442Z,48.65
2023-02-20T07:52:46.048Z,44.50
2023-02-20T07:55:17.255Z,44.95
2023-02-20T07:57:47.117Z,50.83
2023-02-20T08:00:15.476Z,43.70
2023-02-20T08:02:42.024Z,46.67
2023-02-20T08:05:08.947Z,44.15
2023-02-20T08:07:35.306Z,55.45
2023-02-20T08:10:01.821Z,45.03
2023-02-20T08:12:28.431Z,50.75
2023-02-20T08:14:54.783Z,46.13
2023-02-20T08:17:21.120Z,43.90
2023-02-20T08:19:47.488Z,47.75
2023-02-20T08:22:13.812Z,52.72
2023-02-20T08:24:40.390Z,53.45
2023-02-20T08:27:06.982Z,53.45
2023-02-20T08:29:33.625Z,51.65
2023-02-20T08:32:00.085Z,46.28
2023-02-20T08:34:26.730Z,47.83
2023-02-20T08:36:53.414Z,46.72
2023-02-20T08:39:19.767Z,51.08
2023-02-20T08:41:47.564Z,56.95
2023-02-20T08:44:14.876Z,49.95
2023-02-20T08:46:51.962Z,42.03
2023-02-20T08:49:20.170Z,50.58
2023-02-20T08:51:48.772Z,41.92
2023-02-20T08:54:16.076Z,41.43
2023-02-20T08:56:42.875Z,41.45
2023-02-20T08:59:09.590Z,42.38
2023-02-20T09:01:36.377Z,38.63
2023-02-20T09:04:03.833Z,32.97
2023-02-20T09:06:30.474Z,37.53
2023-02-20T09:08:57.039Z,29.63
2023-02-20T09:11:24.594Z,38.05
2023-02-20T09:13:50.994Z,33.30
2023-02-20T09:16:20.758Z,32.67
2023-02-20T09:18:47.808Z,33.65
2023-02-20T09:21:16.615Z,30.63
2023-02-20T09:23:43.167Z,30.52
2023-02-20T09:26:09.603Z,30.60
2023-02-20T09:28:36.166Z,32.40
2023-02-20T09:31:02.568Z,36.13
2023-02-20T09:33:29.292Z,34.50
2023-02-20T09:35:56.139Z,32.20
2023-02-20T09:38:26.206Z,35.95
2023-02-20T09:40:57.237Z,33.97
2023-02-20T09:43:47.872Z,32.28
2023-02-20T09:46:20.318Z,33.67
2023-02-20T09:48:58.249Z,28.20
2023-02-20T09:51:27.432Z,32.58
2023-02-20T09:54:08.652Z,28.00
2023-02-20T09:56:41.037Z,28.10
2023-02-20T09:59:15.199Z,35.83
2023-02-20T10:02:13.736Z,30.42
2023-02-20T10:04:58.908Z,35.42
2023-02-20T10:07:36.808Z,30.23
2023-02-20T10:10:19.804Z,35.08
2023-02-20T10:13:20.138Z,36.83
2023-02-20T10:16:20.809Z,29.55
2023-02-20T10:19:00.053Z,34.90
2023-02-20T10:22:01.922Z,32.95
2023-02-20T10:24:35.898Z,43.53
2023-02-20T10:27:20.560Z,29.02
2023-02-20T10:29:46.973Z,36.22
2023-02-20T10:32:21.777Z,30.38
2023-02-20T10:35:07.850Z,35.70
2023-02-20T10:37:47.456Z,32.67
2023-02-20T10:40:24.949Z,32.67
2023-02-20T10:42:59.564Z,26.27
2023-02-20T10:45:53.100Z,32.72
2023-02-20T10:48:19.971Z,25.48
2023-02-20T10:50:54.620Z,27.88
2023-02-20T10:53:39.543Z,26.40
2023-02-20T10:56:21.968Z,24.67
2023-02-20T10:58:53.155Z,33.78
2023-02-20T11:01:22.920Z,33.92
2023-02-20T11:04:10.765Z,29.77
2023-02-20T11:07:03.718Z,27.55
2023-02-20T11:09:30.441Z,30.42
2023-02-20T11:11:57.013Z,23.95
2023-02-20T11:14:40.991Z,27.45
2023-02-20T11:17:21.220Z,28.13
2023-02-20T11:19:55.412Z,33.13
2023-02-20T11:22:47.677Z,28.15
2023-02-20T11:25:16.511Z,25.38
2023-02-20T11:27:43.189Z,26.73
2023-02-20T11:30:39.643Z,30.30
2023-02-20T11:33:18.059Z,23.20
2023-02-20T11:35:48.006Z,28.67
2023-02-20T11:38:28.180Z,28.83
2023-02-20T11:40:56.716Z,26.85
2023-02-20T11:43:32.119Z,26.65
2023-02-20T11:46:27.341Z,31.65
2023-02-20T11:49:07.530Z,30.67
2023-02-20T11:51:50.491Z,22.38
2023-02-20T11:54:21.820Z,28.20
2023-02-20T11:56:57.354Z,30.15
2023-02-20T11:59:26.839Z,36.83
2023-02-20T12:02:00.820Z,28.17
2023-02-20T12:04:27.918Z,25.95
2023-02-20T12:06:54.328Z,29.88
2023-02-20T12:09:25.935Z,29.00
2023-02-20T12:11:54.886Z,33.10
2023-02-20T12:14:21.465Z,27.70
2023-02-20T12:17:02.442Z,34.65
2023-02-20T12:20:03.736Z,31.70
2023-02-20T12:22:43.566Z,34.30
2023-02-20T12:25:43.293Z,28.60
2023-02-20T12:28:43.351Z,31.67
2023-02-20T12:31:43.185Z,34.72
2023-02-20T12:34:44.978Z,38.00
2023-02-20T12:38:06.122Z,32.35
2023-02-20T12:41:04.698Z,33.50
2023-02-20T12:43:50.145Z,32.38
2023-02-20T12:49:25.062Z,29.77
2023-02-20T12:52:06.614Z,29.60
2023-02-20T12:55:28.085Z,25.50
2023-02-20T12:58:21.356Z,27.50
2023-02-20T13:00:58.782Z,26.80
2023-02-20T13:03:44.864Z,34.33
2023-02-20T13:06:17.117Z,28.85
2023-02-20T13:09:15.748Z,27.30
2023-02-20T13:11:47.224Z,32.25
2023-02-20T13:14:16.174Z,30.63
2023-02-20T13:17:00.598Z,30.70
2023-02-20T13:19:42.226Z,34.30
2023-02-20T13:22:08.934Z,29.60
2023-02-20T13:24:37.180Z,32.40
2023-02-20T13:27:27.401Z,31.88
2023-02-20T13:30:00.373Z,34.45
2023-02-20T13:32:33.298Z,31.63
2023-02-20T13:35:36.694Z,34.63
2023-02-20T13:38:30.832Z,32.85
2023-02-20T13:40:57.192Z,32.22
2023-02-20T13:43:25.128Z,36.40
2023-02-20T13:46:16.289Z,39.83
2023-02-20T13:48:50.351Z,38.83
2023-02-20T13:51:16.918Z,34.92
2023-02-20T13:54:13.071Z,37.10
2023-02-20T13:56:54.628Z,39.28
2023-02-20T13:59:21.201Z,31.40
2023-02-20T14:02:25.608Z,36.38
2023-02-20T14:04:57.355Z,37.45
2023-02-20T14:07:44.109Z,36.05
2023-02-20T14:10:24.022Z,41.78
2023-02-20T14:13:02.854Z,41.95
2023-02-20T14:15:34.639Z,38.53
2023-02-20T14:18:01.442Z,34.53
2023-02-20T14:20:35.946Z,45.45
2023-02-20T14:23:20.852Z,37.35
2023-02-20T14:26:02.825Z,46.90
2023-02-20T14:28:34.767Z,42.13
2023-02-20T14:31:26.497Z,44.15
2023-02-20T14:33:59.163Z,35.25
2023-02-20T14:37:04.074Z,35.05
2023-02-20T14:39:49.592Z,42.80
2023-02-20T14:42:24.871Z,39.15
2023-02-20T14:45:02.553Z,38.53
2023-02-20T14:47:29.330Z,37.88
2023-02-20T14:50:18.363Z,44.20
2023-02-20T14:52:44.687Z,45.65
2023-02-20T14:55:16.538Z,38.00
2023-02-20T14:57:44.413Z,41.10
2023-02-20T15:00:23.706Z,48.50
2023-02-20T15:02:56.402Z,44.35
2023-02-20T15:05:34.518Z,41.30
2023-02-20T15:08:20.684Z,44.15
2023-02-20T15:10:57.304Z,53.67
2023-02-20T15:13:31.030Z,44.00
2023-02-20T15:16:13.329Z,41.10
2023-02-20T15:18:52.003Z,44.53
2023-02-20T15:24:32.440Z,52.83
2023-02-20T15:27:23.232Z,44.45
2023-02-20T15:30:16.747Z,48.65
2023-02-20T15:32:54.645Z,47.28
2023-02-20T15:35:29.081Z,45.45
2023-02-20T15:37:58.863Z,57.45
2023-02-20T15:40:37.919Z,51.30
2023-02-20T15:43:37.361Z,56.13
2023-02-20T15:46:02.552Z,53.17
2023-02-20T15:48:29.297Z,55.37
2023-02-20T15:50:57.444Z,50.97
2023-02-20T15:53:30.362Z,55.40
2023-02-20T15:55:59.520Z,50.65
2023-02-20T15:58:39.946Z,56.47
2023-02-20T16:01:07.041Z,50.45
2023-02-20T16:03:41.783Z,50.42
2023-02-20T16:06:16.227Z,55.08
2023-02-20T16:08:46.802Z,57.58
2023-02-20T16:11:15.105Z,79.53
2023-02-20T16:16:25.844Z,56.80
2023-02-20T16:18:55.021Z,59.45
2023-02-20T16:21:23.943Z,55.85
2023-02-20T16:23:51.059Z,51.08
2023-02-20T16:26:23.667Z,54.55
2023-02-20T16:28:58.486Z,53.42
2023-02-20T16:31:54.242Z,52.47
2023-02-20T16:34:22.750Z,57.47
2023-02-20T16:36:50.189Z,56.95
2023-02-20T16:39:25.699Z,55.38
2023-02-20T16:41:52.906Z,51.25
2023-02-20T16:44:38.699Z,55.17
2023-02-20T16:47:05.425Z,50.45
2023-02-20T16:49:38.730Z,60.22
2023-02-20T16:52:24.026Z,58.67
2023-02-20T16:54:51.666Z,52.72
2023-02-20T16:57:23.699Z,60.13
2023-02-20T16:59:58.598Z,58.58
2023-02-20T17:02:28.211Z,49.97
2023-02-20T17:04:55.608Z,63.72
2023-02-20T17:07:22.411Z,62.35
2023-02-20T17:09:49.111Z,56.55
2023-02-20T17:12:19.081Z,53.72
2023-02-20T17:14:46.288Z,53.92
2023-02-20T17:17:14.127Z,63.28
2023-02-20T17:19:42.834Z,70.28
2023-02-20T17:22:10.315Z,71.82
2023-02-20T17:24:41.235Z,84.65
2023-02-20T17:27:07.908Z,59.58
2023-02-20T17:29:34.493Z,60.50
2023-02-20T17:32:01.173Z,57.25
2023-02-20T17:34:27.645Z,59.65
2023-02-20T17:36:54.071Z,56.28
2023-02-20T17:39:22.553Z,60.17
2023-02-20T17:41:50.635Z,60.90
2023-02-20T17:44:20.717Z,63.90
2023-02-20T17:46:50.585Z,65.45
2023-02-20T17:49:17.366Z,54.63
2023-02-20T17:51:44.579Z,56.63
2023-02-20T17:54:11.821Z,58.55
2023-02-20T17:56:44.537Z,59.40
2023-02-20T17:59:11.364Z,62.15
2023-02-20T18:01:38.227Z,61.22
2023-02-20T18:04:06.021Z,64.93
2023-02-20T18:06:33.410Z,64.28
2023-02-20T18:09:00.229Z,65.68
2023-02-20T18:11:29.751Z,58.85
2023-02-20T18:13:57.643Z,61.60
2023-02-20T18:16:26.458Z,64.60
2023-02-20T18:18:53.361Z,64.05
2023-02-20T18:21:23.269Z,66.22
2023-02-20T18:23:49.825Z,73.32
2023-02-20T18:26:17.318Z,64.57
2023-02-20T18:28:44.371Z,62.63
2023-02-20T18:31:12.693Z,58.45
2023-02-20T18:36:19.870Z,55.60
2023-02-20T18:38:46.706Z,67.70
2023-02-20T18:41:13.283Z,66.57
2023-02-20T18:43:43.918Z,60.97
2023-02-20T18:46:10.909Z,60.22
2023-02-20T18:48:37.491Z,63.80
2023-02-20T18:51:04.170Z,59.88
2023-02-20T18:53:30.542Z,53.72
2023-02-20T18:55:57.073Z,68.18
2023-02-20T18:58:27.522Z,63.20
2023-02-20T19:00:54.721Z,60.05
2023-02-20T19:03:21.376Z,66.13
2023-02-20T19:05:49.993Z,56.92
2023-02-20T19:10:42.902Z,59.15
2023-02-20T19:13:09.278Z,61.35
2023-02-20T19:15:35.607Z,58.90
2023-02-20T19:18:02.081Z,61.13
2023-02-20T19:20:30.673Z,74.45
2023-02-20T19:25:25.161Z,67.15
2023-02-20T19:27:51.696Z,61.60
2023-02-20T19:30:21.154Z,59.30
2023-02-20T19:32:48.472Z,56.75
2023-02-20T19:35:18.024Z,62.75
2023-02-20T19:37:44.481Z,64.25
2023-02-20T19:40:12.045Z,63.33
2023-02-20T19:42:39.424Z,64.13
2023-02-20T19:45:06.440Z,58.55
2023-02-20T19:47:32.940Z,61.03
2023-02-20T19:49:59.430Z,61.25
2023-02-20T19:52:25.882Z,62.95
2023-02-20T19:54:52.269Z,63.50
2023-02-20T19:57:18.846Z,59.10
2023-02-20T19:59:45.408Z,69.43
2023-02-20T20:02:13.029Z,62.95
2023-02-20T20:04:39.677Z,61.00
2023-02-20T20:07:06.380Z,57.70
2023-02-20T20:09:37.091Z,61.15
2023-02-20T20:12:05.523Z,63.05
2023-02-20T20:14:32.132Z,60.05
2023-02-20T20:16:58.866Z,65.38
2023-02-20T20:19:25.509Z,62.38
2023-02-20T20:21:51.833Z,67.13
2023-02-20T20:24:18.320Z,71.78
2023-02-20T20:26:45.012Z,72.72
2023-02-20T20:29:11.415Z,68.40
2023-02-20T20:31:40.759Z,67.68
2023-02-20T20:34:08.485Z,62.72
2023-02-20T20:36:35.455Z,80.00
2023-02-20T20:39:02.500Z,64.22
2023-02-20T20:41:36.120Z,59.92
2023-02-20T20:44:09.819Z,68.43
2023-02-20T20:46:39.809Z,63.05
2023-02-20T20:49:06.136Z,56.40
2023-02-20T20:51:32.583Z,63.28
2023-02-20T20:53:59.053Z,64.18
2023-02-20T20:56:25.519Z,64.22
2023-02-20T20:58:53.192Z,56.22
2023-02-20T21:01:19.682Z,57.13
2023-02-20T21:03:46.121Z,58.10
2023-02-20T21:06:12.845Z,60.67
2023-02-20T21:08:39.313Z,61.13
2023-02-20T21:11:06.163Z,61.30
2023-02-20T21:13:32.617Z,65.68
2023-02-20T21:15:59.109Z,67.18
2023-02-20T21:18:25.422Z,62.45
2023-02-20T21:20:52.001Z,57.38
2023-02-20T21:23:18.321Z,62.72
2023-02-20T21:25:44.687Z,52.28
2023-02-20T21:28:11.058Z,61.65
2023-02-20T21:30:37.478Z,55.15
2023-02-20T21:33:04.141Z,61.55
2023-02-20T21:35:30.579Z,50.35
2023-02-20T21:37:57.205Z,58.97
2023-02-20T21:40:23.859Z,51.58
2023-02-20T21:43:09.148Z,52.97
2023-02-20T21:45:36.592Z,51.70
2023-02-20T21:48:04.534Z,47.25
2023-02-20T21:50:31.037Z,50.83
2023-02-20T21:52:57.469Z,52.08
2023-02-20T21:57:51.236Z,45.90
2023-02-20T22:00:17.610Z,54.38
2023-02-20T22:02:43.994Z,52.92
2023-02-20T22:05:11.051Z,48.83
2023-02-20T22:07:56.380Z,48.33
2023-02-20T22:10:42.178Z,48.60
2023-02-20T22:13:26.924Z,55.25
2023-02-20T22:16:11.628Z,50.97
2023-02-20T22:18:56.719Z,51.90
2023-02-20T22:21:43.962Z,48.00
2023-02-20T22:24:37.772Z,55.50
2023-02-20T22:27:25.733Z,54.53
2023-02-20T22:30:11.530Z,50.25
2023-02-20T22:32:56.864Z,47.85
2023-02-20T22:35:41.951Z,50.35
2023-02-20T22:38:26.824Z,45.65
2023-02-20T22:41:12.089Z,58.42
2023-02-20T22:43:57.346Z,50.40
2023-02-20T22:46:42.206Z,55.60
2023-02-20T22:49:26.918Z,52.20
2023-02-20T22:52:11.702Z,53.83
2023-02-20T22:55:04.811Z,52.40
2023-02-20T22:57:50.980Z,49.53
2023-02-20T23:00:36.140Z,49.63
2023-02-20T23:03:21.414Z,58.35
2023-02-20T23:06:16.950Z,57.53
2023-02-20T23:09:03.362Z,55.95
2023-02-20T23:11:51.919Z,56.83
2023-02-20T23:14:36.897Z,58.08
2023-02-20T23:17:33.334Z,58.38
2023-02-20T23:20:28.523Z,55.75
2023-02-20T23:23:13.504Z,52.80
2023-02-20T23:25:58.888Z,53.67
2023-02-20T23:28:44.230Z,61.47
2023-02-20T23:31:29.470Z,56.08
2023-02-20T23:34:14.632Z,51.70
2023-02-20T23:37:07.954Z,55.90
2023-02-20T23:39:53.684Z,49.28
2023-02-20T23:42:39.283Z,52.13
2023-02-20T23:45:26.505Z,50.30
2023-02-20T23:48:11.212Z,54.03
2023-02-20T23:50:56.395Z,51.60
2023-02-20T23:53:41.337Z,59.78
2023-02-20T23:56:26.802Z,50.17
2023-02-20T23:59:12.124Z,52.35
